sensor_id;sensor_type;location;lat;lon;timestamp;temperature;humidity
14749;DHT22;7466;53.574;9.976;2023-12-20T00:01:03;5.60;99.90
14749;DHT22;7466;53.574;9.976;2023-12-20T00:03:31;5.60;99.90
14749;DHT22;7466;53.574;9.976;2023-12-20T00:05:58;5.60;99.90
14749;DHT22;7466;53.574;9.976;2023-12-20T00:08:25;5.60;99.90
14749;DHT22;7466;53.574;9.976;2023-12-20T00:10:53;5.50;99.90
14749;DHT22;7466;53.574;9.976;2023-12-20T00:13:22;5.50;99.90
14749;DHT22;7466;53.574;9.976;2023-12-20T00:15:48;5.40;99.90
14749;DHT22;7466;53.574;9.976;2023-12-20T00:18:16;5.50;99.90
14749;DHT22;7466;53.574;9.976;2023-12-20T00:20:43;5.40;99.90
14749;DHT22;7466;53.574;9.976;2023-12-20T00:23:11;5.40;99.90
14749;DHT22;7466;53.574;9.976;2023-12-20T00:25:39;5.40;99.90
14749;DHT22;7466;53.574;9.976;2023-12-20T00:28:06;5.40;99.90
14749;DHT22;7466;53.574;9.976;2023-12-20T00:30:35;5.40;99.90
14749;DHT22;7466;53.574;9.976;2023-12-20T00:33:03;5.40;99.90
14749;DHT22;7466;53.574;9.976;2023-12-20T00:35:31;5.40;99.90
14749;DHT22;7466;53.574;9.976;2023-12-20T00:37:58;5.50;99.90
14749;DHT22;7466;53.574;9.976;2023-12-20T00:40:26;5.40;99.90
14749;DHT22;7466;53.574;9.976;2023-12-20T00:42:55;5.40;99.90
14749;DHT22;7466;53.574;9.976;2023-12-20T00:45:23;5.40;99.90
14749;DHT22;7466;53.574;9.976;2023-12-20T00:47:52;5.40;99.90
14749;DHT22;7466;53.574;9.976;2023-12-20T00:50:19;5.50;99.90
14749;DHT22;7466;53.574;9.976;2023-12-20T00:52:47;5.50;99.90
14749;DHT22;7466;53.574;9.976;2023-12-20T00:55:15;5.50;99.90
14749;DHT22;7466;53.574;9.976;2023-12-20T00:57:42;5.50;99.90
14749;DHT22;7466;53.574;9.976;2023-12-20T01:00:10;5.50;99.90
14749;DHT22;7466;53.574;9.976;2023-12-20T01:02:39;5.50;99.90
14749;DHT22;7466;53.574;9.976;2023-12-20T01:05:08;5.50;99.90
14749;DHT22;7466;53.574;9.976;2023-12-20T01:07:35;5.50;99.90
14749;DHT22;7466;53.574;9.976;2023-12-20T01:10:03;5.40;99.90
14749;DHT22;7466;53.574;9.976;2023-12-20T01:12:30;5.40;99.90
14749;DHT22;7466;53.574;9.976;2023-12-20T01:14:57;5.40;99.90
14749;DHT22;7466;53.574;9.976;2023-12-20T01:17:24;5.40;99.90
14749;DHT22;7466;53.574;9.976;2023-12-20T01:19:51;5.40;99.90
14749;DHT22;7466;53.574;9.976;2023-12-20T01:22:19;5.30;99.90
14749;DHT22;7466;53.574;9.976;2023-12-20T01:24:45;5.30;99.90
14749;DHT22;7466;53.574;9.976;2023-12-20T01:27:12;5.30;99.90
14749;DHT22;7466;53.574;9.976;2023-12-20T01:29:39;5.30;99.90
14749;DHT22;7466;53.574;9.976;2023-12-20T01:32:06;5.20;99.90
14749;DHT22;7466;53.574;9.976;2023-12-20T01:34:33;5.20;99.90
14749;DHT22;7466;53.574;9.976;2023-12-20T01:37:00;5.20;99.90
14749;DHT22;7466;53.574;9.976;2023-12-20T01:39:28;5.20;99.90
14749;DHT22;7466;53.574;9.976;2023-12-20T01:41:55;5.20;99.90
14749;DHT22;7466;53.574;9.976;2023-12-20T01:44:22;5.20;99.90
14749;DHT22;7466;53.574;9.976;2023-12-20T01:46:48;5.20;99.90
14749;DHT22;7466;53.574;9.976;2023-12-20T01:49:15;5.20;99.90
14749;DHT22;7466;53.574;9.976;2023-12-20T01:51:42;5.10;99.90
14749;DHT22;7466;53.574;9.976;2023-12-20T01:54:10;5.20;99.90
14749;DHT22;7466;53.574;9.976;2023-12-20T01:56:38;5.20;99.90
14749;DHT22;7466;53.574;9.976;2023-12-20T01:59:05;5.20;99.90
14749;DHT22;7466;53.574;9.976;2023-12-20T02:01:35;5.20;99.90
14749;DHT22;7466;53.574;9.976;2023-12-20T02:04:02;5.20;99.90
14749;DHT22;7466;53.574;9.976;2023-12-20T02:06:30;5.20;99.90
14749;DHT22;7466;53.574;9.976;2023-12-20T02:08:57;5.20;99.90
14749;DHT22;7466;53.574;9.976;2023-12-20T02:11:24;5.20;99.90
14749;DHT22;7466;53.574;9.976;2023-12-20T02:13:53;5.20;99.90
14749;DHT22;7466;53.574;9.976;2023-12-20T02:16:20;5.20;99.90
14749;DHT22;7466;53.574;9.976;2023-12-20T02:18:47;5.20;99.90
14749;DHT22;7466;53.574;9.976;2023-12-20T02:21:14;5.20;99.90
14749;DHT22;7466;53.574;9.976;2023-12-20T02:23:42;5.20;99.90
14749;DHT22;7466;53.574;9.976;2023-12-20T02:26:09;5.20;99.90
14749;DHT22;7466;53.574;9.976;2023-12-20T02:28:38;5.20;99.90
14749;DHT22;7466;53.574;9.976;2023-12-20T02:31:05;5.20;99.90
14749;DHT22;7466;53.574;9.976;2023-12-20T02:33:32;5.20;99.90
14749;DHT22;7466;53.574;9.976;2023-12-20T02:35:58;5.30;99.90
14749;DHT22;7466;53.574;9.976;2023-12-20T02:38:25;5.30;99.90
14749;DHT22;7466;53.574;9.976;2023-12-20T02:40:53;5.30;99.90
14749;DHT22;7466;53.574;9.976;2023-12-20T02:43:20;5.40;99.90
14749;DHT22;7466;53.574;9.976;2023-12-20T02:45:46;5.40;99.90
14749;DHT22;7466;53.574;9.976;2023-12-20T02:48:13;5.30;99.90
14749;DHT22;7466;53.574;9.976;2023-12-20T02:50:40;5.40;99.90
14749;DHT22;7466;53.574;9.976;2023-12-20T02:53:06;5.40;99.90
14749;DHT22;7466;53.574;9.976;2023-12-20T02:55:33;5.40;99.90
14749;DHT22;7466;53.574;9.976;2023-12-20T02:58:01;5.40;99.90
14749;DHT22;7466;53.574;9.976;2023-12-20T03:00:28;5.40;99.90
14749;DHT22;7466;53.574;9.976;2023-12-20T03:02:54;5.40;99.90
14749;DHT22;7466;53.574;9.976;2023-12-20T03:05:21;5.40;99.90
14749;DHT22;7466;53.574;9.976;2023-12-20T03:07:48;5.40;99.90
14749;DHT22;7466;53.574;9.976;2023-12-20T03:10:15;5.40;99.90
14749;DHT22;7466;53.574;9.976;2023-12-20T03:12:41;5.40;99.90
14749;DHT22;7466;53.574;9.976;2023-12-20T03:15:10;5.40;99.90
14749;DHT22;7466;53.574;9.976;2023-12-20T03:17:37;5.40;99.90
14749;DHT22;7466;53.574;9.976;2023-12-20T03:20:04;5.40;99.90
14749;DHT22;7466;53.574;9.976;2023-12-20T03:22:31;5.40;99.90
14749;DHT22;7466;53.574;9.976;2023-12-20T03:24:58;5.40;99.90
14749;DHT22;7466;53.574;9.976;2023-12-20T03:27:24;5.40;99.90
14749;DHT22;7466;53.574;9.976;2023-12-20T03:29:51;5.40;99.90
14749;DHT22;7466;53.574;9.976;2023-12-20T03:32:19;5.40;99.90
14749;DHT22;7466;53.574;9.976;2023-12-20T03:34:46;5.40;99.90
14749;DHT22;7466;53.574;9.976;2023-12-20T03:37:13;5.40;99.90
14749;DHT22;7466;53.574;9.976;2023-12-20T03:39:40;5.40;99.90
14749;DHT22;7466;53.574;9.976;2023-12-20T03:42:07;5.40;99.90
14749;DHT22;7466;53.574;9.976;2023-12-20T03:44:33;5.40;99.90
14749;DHT22;7466;53.574;9.976;2023-12-20T03:47:00;5.40;99.90
14749;DHT22;7466;53.574;9.976;2023-12-20T03:49:28;5.40;99.90
14749;DHT22;7466;53.574;9.976;2023-12-20T03:51:55;5.40;99.90
14749;DHT22;7466;53.574;9.976;2023-12-20T03:54:21;5.40;99.90
14749;DHT22;7466;53.574;9.976;2023-12-20T03:56:48;5.40;99.90
14749;DHT22;7466;53.574;9.976;2023-12-20T03:59:15;5.40;99.90
14749;DHT22;7466;53.574;9.976;2023-12-20T04:01:43;5.50;99.90
14749;DHT22;7466;53.574;9.976;2023-12-20T04:04:10;5.50;99.90
14749;DHT22;7466;53.574;9.976;2023-12-20T04:06:38;5.50;99.90
14749;DHT22;7466;53.574;9.976;2023-12-20T04:09:05;5.50;99.90
14749;DHT22;7466;53.574;9.976;2023-12-20T04:11:31;5.50;99.90
14749;DHT22;7466;53.574;9.976;2023-12-20T04:13:58;5.50;99.90
14749;DHT22;7466;53.574;9.976;2023-12-20T04:16:25;5.50;99.90
14749;DHT22;7466;53.574;9.976;2023-12-20T04:18:51;5.60;99.90
14749;DHT22;7466;53.574;9.976;2023-12-20T04:21:18;5.50;99.90
14749;DHT22;7466;53.574;9.976;2023-12-20T04:23:46;5.60;99.90
14749;DHT22;7466;53.574;9.976;2023-12-20T04:26:13;5.60;99.90
14749;DHT22;7466;53.574;9.976;2023-12-20T04:28:39;5.60;99.90
14749;DHT22;7466;53.574;9.976;2023-12-20T04:31:06;5.50;99.90
14749;DHT22;7466;53.574;9.976;2023-12-20T04:33:33;5.60;99.90
14749;DHT22;7466;53.574;9.976;2023-12-20T04:35:59;5.60;99.90
14749;DHT22;7466;53.574;9.976;2023-12-20T04:38:26;5.50;99.90
14749;DHT22;7466;53.574;9.976;2023-12-20T04:40:54;5.50;99.90
14749;DHT22;7466;53.574;9.976;2023-12-20T04:43:21;5.50;99.90
14749;DHT22;7466;53.574;9.976;2023-12-20T04:45:48;5.60;99.90
14749;DHT22;7466;53.574;9.976;2023-12-20T04:48:14;5.50;99.90
14749;DHT22;7466;53.574;9.976;2023-12-20T04:50:41;5.50;99.90
14749;DHT22;7466;53.574;9.976;2023-12-20T04:53:08;5.60;99.90
14749;DHT22;7466;53.574;9.976;2023-12-20T04:55:34;5.60;99.90
14749;DHT22;7466;53.574;9.976;2023-12-20T04:58:03;5.60;99.90
14749;DHT22;7466;53.574;9.976;2023-12-20T05:00:30;5.60;99.90
14749;DHT22;7466;53.574;9.976;2023-12-20T05:02:57;5.60;99.90
14749;DHT22;7466;53.574;9.976;2023-12-20T05:05:23;5.60;99.90
14749;DHT22;7466;53.574;9.976;2023-12-20T05:07:50;5.60;99.90
14749;DHT22;7466;53.574;9.976;2023-12-20T05:10:18;5.70;99.90
14749;DHT22;7466;53.574;9.976;2023-12-20T05:12:44;5.70;99.90
14749;DHT22;7466;53.574;9.976;2023-12-20T05:15:12;5.70;99.90
14749;DHT22;7466;53.574;9.976;2023-12-20T05:17:39;5.70;99.90
14749;DHT22;7466;53.574;9.976;2023-12-20T05:20:07;5.80;99.90
14749;DHT22;7466;53.574;9.976;2023-12-20T05:22:34;5.80;99.90
14749;DHT22;7466;53.574;9.976;2023-12-20T05:25:01;5.80;99.90
14749;DHT22;7466;53.574;9.976;2023-12-20T05:27:28;5.80;99.90
14749;DHT22;7466;53.574;9.976;2023-12-20T05:29:54;5.80;99.90
14749;DHT22;7466;53.574;9.976;2023-12-20T05:32:24;5.80;99.90
14749;DHT22;7466;53.574;9.976;2023-12-20T05:34:51;5.80;99.90
14749;DHT22;7466;53.574;9.976;2023-12-20T05:37:18;5.80;99.90
14749;DHT22;7466;53.574;9.976;2023-12-20T05:39:45;5.90;99.90
14749;DHT22;7466;53.574;9.976;2023-12-20T05:42:11;5.90;99.90
14749;DHT22;7466;53.574;9.976;2023-12-20T05:44:38;5.90;99.90
14749;DHT22;7466;53.574;9.976;2023-12-20T05:47:06;5.90;99.90
14749;DHT22;7466;53.574;9.976;2023-12-20T05:49:34;5.80;99.90
14749;DHT22;7466;53.574;9.976;2023-12-20T05:52:01;5.80;99.90
14749;DHT22;7466;53.574;9.976;2023-12-20T05:54:27;5.80;99.90
14749;DHT22;7466;53.574;9.976;2023-12-20T05:56:54;5.80;99.90
14749;DHT22;7466;53.574;9.976;2023-12-20T05:59:21;5.80;99.90
14749;DHT22;7466;53.574;9.976;2023-12-20T06:01:47;5.80;99.90
14749;DHT22;7466;53.574;9.976;2023-12-20T06:04:14;5.80;99.90
14749;DHT22;7466;53.574;9.976;2023-12-20T06:06:43;5.80;99.90
14749;DHT22;7466;53.574;9.976;2023-12-20T06:09:09;5.80;99.90
14749;DHT22;7466;53.574;9.976;2023-12-20T06:11:37;5.80;99.90
14749;DHT22;7466;53.574;9.976;2023-12-20T06:14:03;5.90;99.90
14749;DHT22;7466;53.574;9.976;2023-12-20T06:16:30;5.80;99.90
14749;DHT22;7466;53.574;9.976;2023-12-20T06:18:57;5.80;99.90
14749;DHT22;7466;53.574;9.976;2023-12-20T06:21:23;5.80;99.90
14749;DHT22;7466;53.574;9.976;2023-12-20T06:23:52;5.80;99.90
14749;DHT22;7466;53.574;9.976;2023-12-20T06:26:18;5.80;99.90
14749;DHT22;7466;53.574;9.976;2023-12-20T06:28:45;5.80;99.90
14749;DHT22;7466;53.574;9.976;2023-12-20T06:31:12;5.80;99.90
14749;DHT22;7466;53.574;9.976;2023-12-20T06:33:38;5.80;99.90
14749;DHT22;7466;53.574;9.976;2023-12-20T06:36:07;5.90;99.90
14749;DHT22;7466;53.574;9.976;2023-12-20T06:38:34;5.90;99.90
14749;DHT22;7466;53.574;9.976;2023-12-20T06:41:02;5.90;99.90
14749;DHT22;7466;53.574;9.976;2023-12-20T06:43:29;6.00;99.90
14749;DHT22;7466;53.574;9.976;2023-12-20T06:45:56;6.00;99.90
14749;DHT22;7466;53.574;9.976;2023-12-20T06:48:23;6.00;99.90
14749;DHT22;7466;53.574;9.976;2023-12-20T06:50:50;6.00;99.90
14749;DHT22;7466;53.574;9.976;2023-12-20T06:53:16;5.90;99.90
14749;DHT22;7466;53.574;9.976;2023-12-20T06:55:43;6.00;99.90
14749;DHT22;7466;53.574;9.976;2023-12-20T06:58:11;5.90;99.90
14749;DHT22;7466;53.574;9.976;2023-12-20T07:00:38;5.90;99.90
14749;DHT22;7466;53.574;9.976;2023-12-20T07:03:05;6.00;99.90
14749;DHT22;7466;53.574;9.976;2023-12-20T07:05:31;5.90;99.90
14749;DHT22;7466;53.574;9.976;2023-12-20T07:07:58;5.90;99.90
14749;DHT22;7466;53.574;9.976;2023-12-20T07:10:25;5.90;99.90
14749;DHT22;7466;53.574;9.976;2023-12-20T07:12:52;5.90;99.90
14749;DHT22;7466;53.574;9.976;2023-12-20T07:15:21;5.90;99.90
14749;DHT22;7466;53.574;9.976;2023-12-20T07:17:48;5.90;99.90
14749;DHT22;7466;53.574;9.976;2023-12-20T07:20:15;6.00;99.90
14749;DHT22;7466;53.574;9.976;2023-12-20T07:22:42;6.00;99.90
14749;DHT22;7466;53.574;9.976;2023-12-20T07:25:09;5.90;99.90
14749;DHT22;7466;53.574;9.976;2023-12-20T07:27:36;6.00;99.90
14749;DHT22;7466;53.574;9.976;2023-12-20T07:30:03;6.00;99.90
14749;DHT22;7466;53.574;9.976;2023-12-20T07:32:31;6.00;99.90
14749;DHT22;7466;53.574;9.976;2023-12-20T07:34:58;6.00;99.90
14749;DHT22;7466;53.574;9.976;2023-12-20T07:37:25;6.10;99.90
14749;DHT22;7466;53.574;9.976;2023-12-20T07:39:52;6.10;99.90
14749;DHT22;7466;53.574;9.976;2023-12-20T07:42:19;6.10;99.90
14749;DHT22;7466;53.574;9.976;2023-12-20T07:44:47;6.10;99.90
14749;DHT22;7466;53.574;9.976;2023-12-20T07:47:14;6.10;99.90
14749;DHT22;7466;53.574;9.976;2023-12-20T07:49:46;6.10;99.90
14749;DHT22;7466;53.574;9.976;2023-12-20T07:52:12;6.20;99.90
14749;DHT22;7466;53.574;9.976;2023-12-20T07:54:40;6.20;99.90
14749;DHT22;7466;53.574;9.976;2023-12-20T07:57:06;6.20;99.90
14749;DHT22;7466;53.574;9.976;2023-12-20T07:59:33;6.20;99.90
14749;DHT22;7466;53.574;9.976;2023-12-20T08:02:00;6.20;99.90
14749;DHT22;7466;53.574;9.976;2023-12-20T08:04:27;6.30;99.90
14749;DHT22;7466;53.574;9.976;2023-12-20T08:06:55;6.30;99.90
14749;DHT22;7466;53.574;9.976;2023-12-20T08:09:21;6.30;99.90
14749;DHT22;7466;53.574;9.976;2023-12-20T08:11:48;6.40;99.90
14749;DHT22;7466;53.574;9.976;2023-12-20T08:14:15;6.40;99.90
14749;DHT22;7466;53.574;9.976;2023-12-20T08:16:42;6.40;99.90
14749;DHT22;7466;53.574;9.976;2023-12-20T08:19:08;6.40;99.90
14749;DHT22;7466;53.574;9.976;2023-12-20T08:21:35;6.40;99.90
14749;DHT22;7466;53.574;9.976;2023-12-20T08:24:03;6.40;99.90
14749;DHT22;7466;53.574;9.976;2023-12-20T08:26:30;6.50;99.90
14749;DHT22;7466;53.574;9.976;2023-12-20T08:28:57;6.50;99.90
14749;DHT22;7466;53.574;9.976;2023-12-20T08:31:24;6.50;99.90
14749;DHT22;7466;53.574;9.976;2023-12-20T08:33:51;6.50;99.90
14749;DHT22;7466;53.574;9.976;2023-12-20T08:36:19;6.60;99.90
14749;DHT22;7466;53.574;9.976;2023-12-20T08:38:47;6.60;99.90
14749;DHT22;7466;53.574;9.976;2023-12-20T08:41:15;6.60;99.90
14749;DHT22;7466;53.574;9.976;2023-12-20T08:43:42;6.60;99.90
14749;DHT22;7466;53.574;9.976;2023-12-20T08:46:09;6.60;99.90
14749;DHT22;7466;53.574;9.976;2023-12-20T08:48:36;6.60;99.90
14749;DHT22;7466;53.574;9.976;2023-12-20T08:51:03;6.70;99.90
14749;DHT22;7466;53.574;9.976;2023-12-20T08:53:30;6.70;99.90
14749;DHT22;7466;53.574;9.976;2023-12-20T08:55:56;6.60;99.90
14749;DHT22;7466;53.574;9.976;2023-12-20T08:58:28;6.60;99.90
14749;DHT22;7466;53.574;9.976;2023-12-20T09:00:54;6.50;99.90
14749;DHT22;7466;53.574;9.976;2023-12-20T09:03:21;6.60;99.90
14749;DHT22;7466;53.574;9.976;2023-12-20T09:05:48;6.50;99.90
14749;DHT22;7466;53.574;9.976;2023-12-20T09:08:14;6.50;99.90
14749;DHT22;7466;53.574;9.976;2023-12-20T09:10:41;6.30;99.90
14749;DHT22;7466;53.574;9.976;2023-12-20T09:13:08;6.30;99.90
14749;DHT22;7466;53.574;9.976;2023-12-20T09:15:36;6.30;99.90
14749;DHT22;7466;53.574;9.976;2023-12-20T09:18:03;6.30;99.90
14749;DHT22;7466;53.574;9.976;2023-12-20T09:20:30;6.20;99.90
14749;DHT22;7466;53.574;9.976;2023-12-20T09:22:56;6.10;99.90
14749;DHT22;7466;53.574;9.976;2023-12-20T09:25:23;6.10;99.90
14749;DHT22;7466;53.574;9.976;2023-12-20T09:27:51;6.00;99.90
14749;DHT22;7466;53.574;9.976;2023-12-20T09:30:18;6.00;99.90
14749;DHT22;7466;53.574;9.976;2023-12-20T09:32:47;5.90;99.90
14749;DHT22;7466;53.574;9.976;2023-12-20T09:35:13;5.90;99.90
14749;DHT22;7466;53.574;9.976;2023-12-20T09:37:40;5.90;99.90
14749;DHT22;7466;53.574;9.976;2023-12-20T09:40:11;5.90;99.90
14749;DHT22;7466;53.574;9.976;2023-12-20T09:42:45;5.90;99.90
14749;DHT22;7466;53.574;9.976;2023-12-20T09:45:15;5.90;99.90
14749;DHT22;7466;53.574;9.976;2023-12-20T09:47:43;6.00;99.90
14749;DHT22;7466;53.574;9.976;2023-12-20T09:50:12;6.00;99.90
14749;DHT22;7466;53.574;9.976;2023-12-20T09:52:39;5.90;99.90
14749;DHT22;7466;53.574;9.976;2023-12-20T09:55:07;5.90;99.90
14749;DHT22;7466;53.574;9.976;2023-12-20T09:57:35;5.80;99.90
14749;DHT22;7466;53.574;9.976;2023-12-20T10:00:01;5.70;99.90
14749;DHT22;7466;53.574;9.976;2023-12-20T10:02:30;5.60;99.90
14749;DHT22;7466;53.574;9.976;2023-12-20T10:04:57;5.60;99.90
14749;DHT22;7466;53.574;9.976;2023-12-20T10:07:27;5.60;99.90
14749;DHT22;7466;53.574;9.976;2023-12-20T10:09:54;5.50;99.90
14749;DHT22;7466;53.574;9.976;2023-12-20T10:12:21;5.50;99.90
14749;DHT22;7466;53.574;9.976;2023-12-20T10:14:48;5.50;99.90
14749;DHT22;7466;53.574;9.976;2023-12-20T10:17:16;5.50;99.90
14749;DHT22;7466;53.574;9.976;2023-12-20T10:19:43;5.50;99.90
14749;DHT22;7466;53.574;9.976;2023-12-20T10:22:10;5.50;99.90
14749;DHT22;7466;53.574;9.976;2023-12-20T10:24:40;5.40;99.90
14749;DHT22;7466;53.574;9.976;2023-12-20T10:27:08;5.40;99.90
14749;DHT22;7466;53.574;9.976;2023-12-20T10:29:35;5.50;99.90
14749;DHT22;7466;53.574;9.976;2023-12-20T10:32:23;5.40;99.90
14749;DHT22;7466;53.574;9.976;2023-12-20T10:34:51;5.40;99.90
14749;DHT22;7466;53.574;9.976;2023-12-20T10:37:17;5.50;99.90
14749;DHT22;7466;53.574;9.976;2023-12-20T10:39:49;5.40;99.90
14749;DHT22;7466;53.574;9.976;2023-12-20T10:42:17;5.50;99.90
14749;DHT22;7466;53.574;9.976;2023-12-20T10:44:44;5.50;99.90
14749;DHT22;7466;53.574;9.976;2023-12-20T10:47:11;5.40;99.90
14749;DHT22;7466;53.574;9.976;2023-12-20T10:49:40;5.40;99.90
14749;DHT22;7466;53.574;9.976;2023-12-20T10:52:09;5.50;99.90
14749;DHT22;7466;53.574;9.976;2023-12-20T10:54:35;5.50;99.90
14749;DHT22;7466;53.574;9.976;2023-12-20T10:57:05;5.50;99.90
14749;DHT22;7466;53.574;9.976;2023-12-20T10:59:33;5.50;99.90
14749;DHT22;7466;53.574;9.976;2023-12-20T11:02:02;5.50;99.90
14749;DHT22;7466;53.574;9.976;2023-12-20T11:04:36;5.40;99.90
14749;DHT22;7466;53.574;9.976;2023-12-20T11:07:10;5.40;99.90
14749;DHT22;7466;53.574;9.976;2023-12-20T11:09:45;5.40;99.90
14749;DHT22;7466;53.574;9.976;2023-12-20T11:12:18;5.40;99.90
14749;DHT22;7466;53.574;9.976;2023-12-20T11:14:49;5.40;99.90
14749;DHT22;7466;53.574;9.976;2023-12-20T11:17:16;5.50;99.90
14749;DHT22;7466;53.574;9.976;2023-12-20T11:20:04;5.60;99.90
14749;DHT22;7466;53.574;9.976;2023-12-20T11:22:32;5.60;99.90
14749;DHT22;7466;53.574;9.976;2023-12-20T11:25:03;5.70;99.90
14749;DHT22;7466;53.574;9.976;2023-12-20T11:27:31;5.70;99.90
14749;DHT22;7466;53.574;9.976;2023-12-20T11:29:59;5.70;99.90
14749;DHT22;7466;53.574;9.976;2023-12-20T11:32:29;5.70;99.90
14749;DHT22;7466;53.574;9.976;2023-12-20T11:34:56;5.70;99.90
14749;DHT22;7466;53.574;9.976;2023-12-20T11:37:28;5.50;99.90
14749;DHT22;7466;53.574;9.976;2023-12-20T11:40:00;5.40;99.90
14749;DHT22;7466;53.574;9.976;2023-12-20T11:42:27;5.30;99.90
14749;DHT22;7466;53.574;9.976;2023-12-20T11:44:56;5.30;99.90
14749;DHT22;7466;53.574;9.976;2023-12-20T11:47:22;5.30;99.90
14749;DHT22;7466;53.574;9.976;2023-12-20T11:49:49;5.40;99.90
14749;DHT22;7466;53.574;9.976;2023-12-20T11:52:16;5.40;99.90
14749;DHT22;7466;53.574;9.976;2023-12-20T11:54:43;5.40;99.90
14749;DHT22;7466;53.574;9.976;2023-12-20T11:57:10;5.50;99.90
14749;DHT22;7466;53.574;9.976;2023-12-20T11:59:36;5.50;99.90
14749;DHT22;7466;53.574;9.976;2023-12-20T12:02:05;5.50;99.90
14749;DHT22;7466;53.574;9.976;2023-12-20T12:04:32;5.50;99.90
14749;DHT22;7466;53.574;9.976;2023-12-20T12:06:58;5.60;99.90
14749;DHT22;7466;53.574;9.976;2023-12-20T12:09:25;5.60;99.90
14749;DHT22;7466;53.574;9.976;2023-12-20T12:11:52;5.60;99.90
14749;DHT22;7466;53.574;9.976;2023-12-20T12:14:18;5.60;99.90
14749;DHT22;7466;53.574;9.976;2023-12-20T12:16:46;5.60;99.90
14749;DHT22;7466;53.574;9.976;2023-12-20T12:19:21;5.70;99.90
14749;DHT22;7466;53.574;9.976;2023-12-20T12:21:49;5.70;99.90
14749;DHT22;7466;53.574;9.976;2023-12-20T12:24:16;5.80;99.90
14749;DHT22;7466;53.574;9.976;2023-12-20T12:26:50;5.90;99.90
14749;DHT22;7466;53.574;9.976;2023-12-20T12:29:16;6.00;99.90
14749;DHT22;7466;53.574;9.976;2023-12-20T12:31:43;6.10;99.90
14749;DHT22;7466;53.574;9.976;2023-12-20T12:34:10;6.20;99.90
14749;DHT22;7466;53.574;9.976;2023-12-20T12:36:39;6.30;99.90
14749;DHT22;7466;53.574;9.976;2023-12-20T12:39:06;6.30;99.90
14749;DHT22;7466;53.574;9.976;2023-12-20T12:41:34;6.30;99.90
14749;DHT22;7466;53.574;9.976;2023-12-20T12:44:00;6.30;99.90
14749;DHT22;7466;53.574;9.976;2023-12-20T12:46:27;6.40;99.90
14749;DHT22;7466;53.574;9.976;2023-12-20T12:48:54;6.50;99.90
14749;DHT22;7466;53.574;9.976;2023-12-20T12:51:21;6.60;99.90
14749;DHT22;7466;53.574;9.976;2023-12-20T12:53:49;6.60;99.90
14749;DHT22;7466;53.574;9.976;2023-12-20T12:56:16;6.60;99.90
14749;DHT22;7466;53.574;9.976;2023-12-20T12:58:43;6.70;99.90
14749;DHT22;7466;53.574;9.976;2023-12-20T13:01:09;6.70;99.90
14749;DHT22;7466;53.574;9.976;2023-12-20T13:03:36;6.80;99.90
14749;DHT22;7466;53.574;9.976;2023-12-20T13:06:04;6.80;99.90
14749;DHT22;7466;53.574;9.976;2023-12-20T13:08:31;6.80;99.90
14749;DHT22;7466;53.574;9.976;2023-12-20T13:11:00;6.70;99.90
14749;DHT22;7466;53.574;9.976;2023-12-20T13:13:29;6.60;99.90
14749;DHT22;7466;53.574;9.976;2023-12-20T13:15:56;6.50;99.90
14749;DHT22;7466;53.574;9.976;2023-12-20T13:18:23;6.50;99.90
14749;DHT22;7466;53.574;9.976;2023-12-20T13:20:50;6.50;99.90
14749;DHT22;7466;53.574;9.976;2023-12-20T13:23:17;6.40;99.90
14749;DHT22;7466;53.574;9.976;2023-12-20T13:25:44;6.40;99.90
14749;DHT22;7466;53.574;9.976;2023-12-20T13:28:13;6.40;99.90
14749;DHT22;7466;53.574;9.976;2023-12-20T13:30:40;6.40;99.90
14749;DHT22;7466;53.574;9.976;2023-12-20T13:33:07;6.40;99.90
14749;DHT22;7466;53.574;9.976;2023-12-20T13:35:34;6.40;99.90
14749;DHT22;7466;53.574;9.976;2023-12-20T13:38:01;6.40;99.90
14749;DHT22;7466;53.574;9.976;2023-12-20T13:40:27;6.40;99.90
14749;DHT22;7466;53.574;9.976;2023-12-20T13:42:55;6.30;99.90
14749;DHT22;7466;53.574;9.976;2023-12-20T13:45:23;6.30;99.90
14749;DHT22;7466;53.574;9.976;2023-12-20T13:47:50;6.20;99.90
14749;DHT22;7466;53.574;9.976;2023-12-20T13:50:17;6.20;99.90
14749;DHT22;7466;53.574;9.976;2023-12-20T13:52:44;6.10;99.90
14749;DHT22;7466;53.574;9.976;2023-12-20T13:55:12;6.10;99.90
14749;DHT22;7466;53.574;9.976;2023-12-20T13:57:38;6.10;99.90
14749;DHT22;7466;53.574;9.976;2023-12-20T14:00:07;6.10;99.90
14749;DHT22;7466;53.574;9.976;2023-12-20T14:02:41;6.20;99.90
14749;DHT22;7466;53.574;9.976;2023-12-20T14:05:08;6.20;99.90
14749;DHT22;7466;53.574;9.976;2023-12-20T14:07:35;6.30;99.90
14749;DHT22;7466;53.574;9.976;2023-12-20T14:10:03;6.20;99.90
14749;DHT22;7466;53.574;9.976;2023-12-20T14:12:31;6.20;99.90
14749;DHT22;7466;53.574;9.976;2023-12-20T14:15:01;6.30;99.90
14749;DHT22;7466;53.574;9.976;2023-12-20T14:17:27;6.20;99.90
14749;DHT22;7466;53.574;9.976;2023-12-20T14:19:55;6.30;99.90
14749;DHT22;7466;53.574;9.976;2023-12-20T14:22:22;6.20;99.90
14749;DHT22;7466;53.574;9.976;2023-12-20T14:24:50;6.30;99.90
14749;DHT22;7466;53.574;9.976;2023-12-20T14:27:17;6.20;99.90
14749;DHT22;7466;53.574;9.976;2023-12-20T14:29:46;6.20;99.90
14749;DHT22;7466;53.574;9.976;2023-12-20T14:32:13;6.20;99.90
14749;DHT22;7466;53.574;9.976;2023-12-20T14:34:40;6.20;99.90
14749;DHT22;7466;53.574;9.976;2023-12-20T14:37:08;6.30;99.90
14749;DHT22;7466;53.574;9.976;2023-12-20T14:39:35;6.20;99.90
14749;DHT22;7466;53.574;9.976;2023-12-20T14:42:05;6.30;99.90
14749;DHT22;7466;53.574;9.976;2023-12-20T14:44:32;6.20;99.90
14749;DHT22;7466;53.574;9.976;2023-12-20T14:46:58;6.20;99.90
14749;DHT22;7466;53.574;9.976;2023-12-20T14:49:27;6.20;99.90
14749;DHT22;7466;53.574;9.976;2023-12-20T14:51:54;6.20;99.90
14749;DHT22;7466;53.574;9.976;2023-12-20T14:54:22;6.20;99.90
14749;DHT22;7466;53.574;9.976;2023-12-20T14:56:49;6.10;99.90
14749;DHT22;7466;53.574;9.976;2023-12-20T14:59:15;6.00;99.90
14749;DHT22;7466;53.574;9.976;2023-12-20T15:01:43;6.00;99.90
14749;DHT22;7466;53.574;9.976;2023-12-20T15:04:10;6.00;99.90
14749;DHT22;7466;53.574;9.976;2023-12-20T15:06:38;5.90;99.90
14749;DHT22;7466;53.574;9.976;2023-12-20T15:09:04;5.90;99.90
14749;DHT22;7466;53.574;9.976;2023-12-20T15:11:32;6.00;99.90
14749;DHT22;7466;53.574;9.976;2023-12-20T15:14:00;6.00;99.90
14749;DHT22;7466;53.574;9.976;2023-12-20T15:16:26;6.00;99.90
14749;DHT22;7466;53.574;9.976;2023-12-20T15:18:54;6.00;99.90
14749;DHT22;7466;53.574;9.976;2023-12-20T15:21:20;6.10;99.90
14749;DHT22;7466;53.574;9.976;2023-12-20T15:23:55;6.00;99.90
14749;DHT22;7466;53.574;9.976;2023-12-20T15:26:32;6.00;99.90
14749;DHT22;7466;53.574;9.976;2023-12-20T15:28:59;6.00;99.90
14749;DHT22;7466;53.574;9.976;2023-12-20T15:31:26;5.90;99.90
14749;DHT22;7466;53.574;9.976;2023-12-20T15:33:53;5.90;99.90
14749;DHT22;7466;53.574;9.976;2023-12-20T15:36:20;5.90;99.90
14749;DHT22;7466;53.574;9.976;2023-12-20T15:38:47;5.90;99.90
14749;DHT22;7466;53.574;9.976;2023-12-20T15:41:17;5.80;99.90
14749;DHT22;7466;53.574;9.976;2023-12-20T15:43:45;5.80;99.90
14749;DHT22;7466;53.574;9.976;2023-12-20T15:46:12;5.70;99.90
14749;DHT22;7466;53.574;9.976;2023-12-20T15:48:39;5.80;99.90
14749;DHT22;7466;53.574;9.976;2023-12-20T15:51:06;5.70;99.90
14749;DHT22;7466;53.574;9.976;2023-12-20T15:53:32;5.70;99.90
14749;DHT22;7466;53.574;9.976;2023-12-20T15:55:59;5.70;99.90
14749;DHT22;7466;53.574;9.976;2023-12-20T15:58:26;5.70;99.90
14749;DHT22;7466;53.574;9.976;2023-12-20T16:00:54;5.70;99.90
14749;DHT22;7466;53.574;9.976;2023-12-20T16:03:21;5.70;99.90